sensor_id;sensor_type;location;lat;lon;timestamp;pressure;altitude;pressure_sealevel;temperature;humidity
81990;BME280;71485;51.638;-0.182;2023-08-07T00:00:17;100927.17;;;25.62;29.87
81990;BME280;71485;51.638;-0.182;2023-08-07T00:02:44;100926.35;;;25.51;29.99
81990;BME280;71485;51.638;-0.182;2023-08-07T00:05:08;100925.23;;;25.55;29.93
81990;BME280;71485;51.638;-0.182;2023-08-07T00:07:34;100924.62;;;25.59;29.92
81990;BME280;71485;51.638;-0.182;2023-08-07T00:10:00;100925.62;;;25.52;29.95
81990;BME280;71485;51.638;-0.182;2023-08-07T00:12:25;100928.79;;;25.48;29.99
81990;BME280;71485;51.638;-0.182;2023-08-07T00:14:51;100933.73;;;25.52;29.91
81990;BME280;71485;51.638;-0.182;2023-08-07T00:17:17;100935.02;;;25.73;30.00
81990;BME280;71485;51.638;-0.182;2023-08-07T00:19:42;100934.83;;;25.69;30.04
81990;BME280;71485;51.638;-0.182;2023-08-07T00:22:07;100933.98;;;25.46;30.00
81990;BME280;71485;51.638;-0.182;2023-08-07T00:24:33;100933.51;;;25.48;29.97
81990;BME280;71485;51.638;-0.182;2023-08-07T00:27:00;100934.32;;;25.43;30.05
81990;BME280;71485;51.638;-0.182;2023-08-07T00:29:24;100934.19;;;25.43;29.98
81990;BME280;71485;51.638;-0.182;2023-08-07T00:31:50;100930.43;;;25.77;29.95
81990;BME280;71485;51.638;-0.182;2023-08-07T00:34:15;100929.13;;;25.92;29.95
81990;BME280;71485;51.638;-0.182;2023-08-07T00:36:41;100930.08;;;25.68;29.95
81990;BME280;71485;51.638;-0.182;2023-08-07T00:39:08;100927.03;;;25.47;29.98
81990;BME280;71485;51.638;-0.182;2023-08-07T00:41:32;100925.92;;;25.42;29.94
81990;BME280;71485;51.638;-0.182;2023-08-07T00:43:57;100924.56;;;25.71;29.91
81990;BME280;71485;51.638;-0.182;2023-08-07T00:46:23;100919.63;;;25.67;29.99
81990;BME280;71485;51.638;-0.182;2023-08-07T00:48:51;100920.40;;;25.68;29.98
81990;BME280;71485;51.638;-0.182;2023-08-07T00:51:15;100921.32;;;25.38;30.08
81990;BME280;71485;51.638;-0.182;2023-08-07T00:53:42;100921.84;;;25.38;30.00
81990;BME280;71485;51.638;-0.182;2023-08-07T00:56:06;100920.46;;;25.30;30.09
81990;BME280;71485;51.638;-0.182;2023-08-07T00:58:31;100915.99;;;25.84;30.16
81990;BME280;71485;51.638;-0.182;2023-08-07T01:00:57;100914.25;;;25.63;30.03
81990;BME280;71485;51.638;-0.182;2023-08-07T01:03:22;100912.65;;;25.57;30.09
81990;BME280;71485;51.638;-0.182;2023-08-07T01:05:47;100912.74;;;25.57;30.07
81990;BME280;71485;51.638;-0.182;2023-08-07T01:08:13;100913.56;;;25.81;30.12
81990;BME280;71485;51.638;-0.182;2023-08-07T01:10:51;100914.06;;;25.51;30.12
81990;BME280;71485;51.638;-0.182;2023-08-07T01:13:09;100915.26;;;25.58;30.08
81990;BME280;71485;51.638;-0.182;2023-08-07T01:15:33;100917.20;;;25.53;30.02
81990;BME280;71485;51.638;-0.182;2023-08-07T01:17:56;100918.94;;;25.47;30.12
81990;BME280;71485;51.638;-0.182;2023-08-07T01:20:21;100915.02;;;25.44;30.22
81990;BME280;71485;51.638;-0.182;2023-08-07T01:22:46;100914.02;;;25.80;30.12
81990;BME280;71485;51.638;-0.182;2023-08-07T01:25:13;100912.71;;;25.53;30.18
81990;BME280;71485;51.638;-0.182;2023-08-07T01:27:44;100912.14;;;25.42;30.45
81990;BME280;71485;51.638;-0.182;2023-08-07T01:30:11;100907.55;;;25.34;30.70
81990;BME280;71485;51.638;-0.182;2023-08-07T01:32:34;100908.52;;;25.97;30.66
81990;BME280;71485;51.638;-0.182;2023-08-07T01:34:56;100903.16;;;25.51;30.84
81990;BME280;71485;51.638;-0.182;2023-08-07T01:37:23;100905.62;;;25.83;30.31
81990;BME280;71485;51.638;-0.182;2023-08-07T01:39:48;100908.05;;;25.83;30.20
81990;BME280;71485;51.638;-0.182;2023-08-07T01:42:12;100907.36;;;25.76;30.23
81990;BME280;71485;51.638;-0.182;2023-08-07T01:44:37;100909.54;;;25.68;30.25
81990;BME280;71485;51.638;-0.182;2023-08-07T01:47:03;100910.67;;;26.13;30.00
81990;BME280;71485;51.638;-0.182;2023-08-07T01:49:32;100911.36;;;25.68;30.54
81990;BME280;71485;51.638;-0.182;2023-08-07T01:51:55;100909.44;;;25.56;30.39
81990;BME280;71485;51.638;-0.182;2023-08-07T01:54:19;100906.01;;;25.97;30.14
81990;BME280;71485;51.638;-0.182;2023-08-07T01:56:45;100906.43;;;25.82;30.29
81990;BME280;71485;51.638;-0.182;2023-08-07T01:59:10;100903.50;;;25.77;30.35
81990;BME280;71485;51.638;-0.182;2023-08-07T02:01:36;100901.86;;;25.51;30.63
81990;BME280;71485;51.638;-0.182;2023-08-07T02:04:03;100902.35;;;25.53;30.59
81990;BME280;71485;51.638;-0.182;2023-08-07T02:06:27;100902.84;;;25.46;30.70
81990;BME280;71485;51.638;-0.182;2023-08-07T02:08:52;100901.86;;;25.72;30.23
81990;BME280;71485;51.638;-0.182;2023-08-07T02:11:18;100902.77;;;25.84;29.97
81990;BME280;71485;51.638;-0.182;2023-08-07T02:13:43;100903.24;;;25.92;29.81
81990;BME280;71485;51.638;-0.182;2023-08-07T02:16:09;100901.02;;;26.04;29.64
81990;BME280;71485;51.638;-0.182;2023-08-07T02:18:35;100895.87;;;26.07;29.51
81990;BME280;71485;51.638;-0.182;2023-08-07T02:21:00;100897.03;;;26.09;29.54
81990;BME280;71485;51.638;-0.182;2023-08-07T02:23:27;100899.46;;;26.06;29.82
81990;BME280;71485;51.638;-0.182;2023-08-07T02:25:53;100898.92;;;26.28;29.52
81990;BME280;71485;51.638;-0.182;2023-08-07T02:28:18;100899.89;;;25.99;29.56
81990;BME280;71485;51.638;-0.182;2023-08-07T02:30:45;100901.72;;;26.03;29.38
81990;BME280;71485;51.638;-0.182;2023-08-07T02:33:08;100901.74;;;26.02;29.28
81990;BME280;71485;51.638;-0.182;2023-08-07T02:35:34;100903.36;;;26.01;29.24
81990;BME280;71485;51.638;-0.182;2023-08-07T02:38:00;100898.63;;;26.03;29.20
81990;BME280;71485;51.638;-0.182;2023-08-07T02:40:25;100895.93;;;26.04;29.11
81990;BME280;71485;51.638;-0.182;2023-08-07T02:42:51;100898.06;;;26.26;29.08
81990;BME280;71485;51.638;-0.182;2023-08-07T02:45:16;100902.15;;;26.02;29.08
81990;BME280;71485;51.638;-0.182;2023-08-07T02:47:43;100904.15;;;26.03;29.08
81990;BME280;71485;51.638;-0.182;2023-08-07T02:50:09;100907.39;;;26.27;29.05
81990;BME280;71485;51.638;-0.182;2023-08-07T02:52:33;100905.54;;;26.24;29.01
81990;BME280;71485;51.638;-0.182;2023-08-07T02:54:58;100908.32;;;25.98;28.98
81990;BME280;71485;51.638;-0.182;2023-08-07T02:57:24;100907.64;;;25.98;28.98
81990;BME280;71485;51.638;-0.182;2023-08-07T02:59:50;100906.96;;;25.97;28.98
81990;BME280;71485;51.638;-0.182;2023-08-07T03:02:16;100908.28;;;25.98;28.99
81990;BME280;71485;51.638;-0.182;2023-08-07T03:04:41;100909.37;;;25.95;28.99
81990;BME280;71485;51.638;-0.182;2023-08-07T03:07:06;100904.89;;;26.17;28.97
81990;BME280;71485;51.638;-0.182;2023-08-07T03:09:32;100904.29;;;26.18;28.93
81990;BME280;71485;51.638;-0.182;2023-08-07T03:11:57;100904.30;;;25.95;28.96
81990;BME280;71485;51.638;-0.182;2023-08-07T03:14:23;100902.37;;;25.91;28.91
81990;BME280;71485;51.638;-0.182;2023-08-07T03:16:48;100902.95;;;26.15;28.92
81990;BME280;71485;51.638;-0.182;2023-08-07T03:19:14;100903.79;;;25.91;28.92
81990;BME280;71485;51.638;-0.182;2023-08-07T03:21:41;100904.47;;;25.91;28.91
81990;BME280;71485;51.638;-0.182;2023-08-07T03:24:05;100903.59;;;25.91;28.89
81990;BME280;71485;51.638;-0.182;2023-08-07T03:26:31;100908.35;;;25.86;28.91
81990;BME280;71485;51.638;-0.182;2023-08-07T03:28:56;100910.67;;;25.88;28.93
81990;BME280;71485;51.638;-0.182;2023-08-07T03:31:22;100909.96;;;25.82;28.97
81990;BME280;71485;51.638;-0.182;2023-08-07T03:33:47;100908.29;;;25.81;28.97
81990;BME280;71485;51.638;-0.182;2023-08-07T03:36:13;100911.24;;;26.04;28.97
81990;BME280;71485;51.638;-0.182;2023-08-07T03:38:40;100905.14;;;26.03;28.98
81990;BME280;71485;51.638;-0.182;2023-08-07T03:41:05;100899.47;;;26.08;28.96
81990;BME280;71485;51.638;-0.182;2023-08-07T03:43:30;100897.28;;;25.82;28.95
81990;BME280;71485;51.638;-0.182;2023-08-07T03:45:57;100900.90;;;25.75;29.00
81990;BME280;71485;51.638;-0.182;2023-08-07T03:48:21;100904.08;;;25.76;28.96
81990;BME280;71485;51.638;-0.182;2023-08-07T03:50:51;100903.74;;;26.00;28.97
81990;BME280;71485;51.638;-0.182;2023-08-07T03:53:12;100903.76;;;25.97;28.99
81990;BME280;71485;51.638;-0.182;2023-08-07T03:55:38;100906.37;;;25.71;29.00
81990;BME280;71485;51.638;-0.182;2023-08-07T03:58:03;100907.70;;;25.98;28.97
81990;BME280;71485;51.638;-0.182;2023-08-07T04:00:29;100907.40;;;25.94;29.00
81990;BME280;71485;51.638;-0.182;2023-08-07T04:02:54;100910.46;;;25.91;29.03
81990;BME280;71485;51.638;-0.182;2023-08-07T04:05:20;100911.43;;;25.67;29.01
81990;BME280;71485;51.638;-0.182;2023-08-07T04:07:46;100912.42;;;25.90;28.99
81990;BME280;71485;51.638;-0.182;2023-08-07T04:10:12;100913.31;;;25.69;28.94
81990;BME280;71485;51.638;-0.182;2023-08-07T04:12:37;100911.94;;;25.65;28.98
81990;BME280;71485;51.638;-0.182;2023-08-07T04:15:05;100912.19;;;25.91;28.97
81990;BME280;71485;51.638;-0.182;2023-08-07T04:17:28;100914.46;;;25.58;29.04
81990;BME280;71485;51.638;-0.182;2023-08-07T04:19:53;100916.47;;;25.58;29.02
81990;BME280;71485;51.638;-0.182;2023-08-07T04:22:19;100917.83;;;25.58;29.03
81990;BME280;71485;51.638;-0.182;2023-08-07T04:24:45;100918.08;;;25.54;29.01
81990;BME280;71485;51.638;-0.182;2023-08-07T04:27:14;100920.91;;;26.06;29.05
81990;BME280;71485;51.638;-0.182;2023-08-07T04:29:36;100919.31;;;25.57;29.04
81990;BME280;71485;51.638;-0.182;2023-08-07T04:32:01;100917.32;;;25.53;29.07
81990;BME280;71485;51.638;-0.182;2023-08-07T04:34:27;100920.23;;;25.58;29.04
81990;BME280;71485;51.638;-0.182;2023-08-07T04:36:53;100921.07;;;25.53;29.07
81990;BME280;71485;51.638;-0.182;2023-08-07T04:39:20;100924.22;;;25.77;29.01
81990;BME280;71485;51.638;-0.182;2023-08-07T04:41:44;100924.88;;;25.51;29.04
81990;BME280;71485;51.638;-0.182;2023-08-07T04:44:09;100926.26;;;25.44;29.08
81990;BME280;71485;51.638;-0.182;2023-08-07T04:46:35;100927.02;;;25.61;29.21
81990;BME280;71485;51.638;-0.182;2023-08-07T04:49:01;100931.36;;;25.79;29.27
81990;BME280;71485;51.638;-0.182;2023-08-07T04:51:26;100931.34;;;25.51;29.32
81990;BME280;71485;51.638;-0.182;2023-08-07T04:53:52;100931.74;;;25.42;29.43
81990;BME280;71485;51.638;-0.182;2023-08-07T04:56:17;100931.50;;;25.80;29.34
81990;BME280;71485;51.638;-0.182;2023-08-07T04:58:43;100933.43;;;25.62;29.32
81990;BME280;71485;51.638;-0.182;2023-08-07T05:01:09;100933.20;;;25.41;29.32
81990;BME280;71485;51.638;-0.182;2023-08-07T05:03:34;100933.79;;;25.68;29.32
81990;BME280;71485;51.638;-0.182;2023-08-07T05:06:00;100935.37;;;25.69;29.35
81990;BME280;71485;51.638;-0.182;2023-08-07T05:08:25;100934.04;;;25.46;29.39
81990;BME280;71485;51.638;-0.182;2023-08-07T05:10:51;100933.87;;;25.93;29.42
81990;BME280;71485;51.638;-0.182;2023-08-07T05:13:16;100933.86;;;25.70;29.45
81990;BME280;71485;51.638;-0.182;2023-08-07T05:15:42;100938.12;;;25.94;29.44
81990;BME280;71485;51.638;-0.182;2023-08-07T05:18:07;100938.92;;;25.48;29.43
81990;BME280;71485;51.638;-0.182;2023-08-07T05:20:33;100942.17;;;25.71;29.45
81990;BME280;71485;51.638;-0.182;2023-08-07T05:22:59;100944.35;;;25.69;29.45
81990;BME280;71485;51.638;-0.182;2023-08-07T05:25:28;100949.72;;;25.70;29.44
81990;BME280;71485;51.638;-0.182;2023-08-07T05:27:50;100945.88;;;25.72;29.43
81990;BME280;71485;51.638;-0.182;2023-08-07T05:30:15;100937.37;;;25.71;29.46
81990;BME280;71485;51.638;-0.182;2023-08-07T05:32:42;100936.25;;;25.46;29.49
81990;BME280;71485;51.638;-0.182;2023-08-07T05:35:08;100935.69;;;25.69;29.53
81990;BME280;71485;51.638;-0.182;2023-08-07T05:37:33;100933.51;;;25.45;29.55
81990;BME280;71485;51.638;-0.182;2023-08-07T05:40:04;100933.32;;;25.45;29.56
81990;BME280;71485;51.638;-0.182;2023-08-07T05:42:24;100935.11;;;25.45;29.56
81990;BME280;71485;51.638;-0.182;2023-08-07T05:44:49;100935.83;;;25.67;29.58
81990;BME280;71485;51.638;-0.182;2023-08-07T05:47:14;100941.40;;;25.68;29.59
81990;BME280;71485;51.638;-0.182;2023-08-07T05:49:41;100942.84;;;25.68;29.57
81990;BME280;71485;51.638;-0.182;2023-08-07T05:52:07;100936.54;;;25.91;29.62
81990;BME280;71485;51.638;-0.182;2023-08-07T05:54:31;100935.54;;;25.47;29.58
81990;BME280;71485;51.638;-0.182;2023-08-07T05:56:57;100933.29;;;25.47;29.55
81990;BME280;71485;51.638;-0.182;2023-08-07T05:59:22;100932.38;;;25.68;29.58
81990;BME280;71485;51.638;-0.182;2023-08-07T06:01:49;100936.09;;;25.45;29.58
81990;BME280;71485;51.638;-0.182;2023-08-07T06:04:13;100938.76;;;25.91;29.58
81990;BME280;71485;51.638;-0.182;2023-08-07T06:06:39;100941.17;;;25.66;29.62
81990;BME280;71485;51.638;-0.182;2023-08-07T06:09:05;100940.14;;;25.67;29.63
81990;BME280;71485;51.638;-0.182;2023-08-07T06:11:30;100940.80;;;25.45;29.59
81990;BME280;71485;51.638;-0.182;2023-08-07T06:13:58;100939.66;;;25.44;29.58
81990;BME280;71485;51.638;-0.182;2023-08-07T06:16:22;100947.95;;;25.67;29.60
81990;BME280;71485;51.638;-0.182;2023-08-07T06:18:47;100949.75;;;25.68;29.60
81990;BME280;71485;51.638;-0.182;2023-08-07T06:21:12;100949.34;;;25.45;29.62
81990;BME280;71485;51.638;-0.182;2023-08-07T06:23:38;100953.69;;;25.70;29.61
81990;BME280;71485;51.638;-0.182;2023-08-07T06:26:04;100953.03;;;25.70;29.60
81990;BME280;71485;51.638;-0.182;2023-08-07T06:28:29;100956.39;;;25.46;29.62
81990;BME280;71485;51.638;-0.182;2023-08-07T06:31:00;100956.77;;;25.70;29.72
81990;BME280;71485;51.638;-0.182;2023-08-07T06:33:20;100957.59;;;25.71;29.81
81990;BME280;71485;51.638;-0.182;2023-08-07T06:35:46;100958.57;;;25.95;29.95
81990;BME280;71485;51.638;-0.182;2023-08-07T06:38:13;100962.82;;;25.48;30.00
81990;BME280;71485;51.638;-0.182;2023-08-07T06:40:39;100963.11;;;25.72;30.08
81990;BME280;71485;51.638;-0.182;2023-08-07T06:43:03;100964.68;;;25.48;30.14
81990;BME280;71485;51.638;-0.182;2023-08-07T06:45:29;100960.71;;;25.74;30.22
81990;BME280;71485;51.638;-0.182;2023-08-07T06:47:56;100955.67;;;26.01;30.19
81990;BME280;71485;51.638;-0.182;2023-08-07T06:50:20;100954.99;;;25.54;30.19
81990;BME280;71485;51.638;-0.182;2023-08-07T06:52:46;100954.84;;;25.54;30.18
81990;BME280;71485;51.638;-0.182;2023-08-07T06:55:13;100952.19;;;25.55;30.15
81990;BME280;71485;51.638;-0.182;2023-08-07T06:57:37;100955.62;;;26.01;30.15
81990;BME280;71485;51.638;-0.182;2023-08-07T07:00:04;100957.14;;;25.79;30.11
81990;BME280;71485;51.638;-0.182;2023-08-07T07:02:30;100958.74;;;25.80;30.07
81990;BME280;71485;51.638;-0.182;2023-08-07T07:04:54;100963.11;;;25.56;30.05
81990;BME280;71485;51.638;-0.182;2023-08-07T07:07:20;100965.17;;;25.81;30.03
81990;BME280;71485;51.638;-0.182;2023-08-07T07:09:47;100966.77;;;25.81;30.00
81990;BME280;71485;51.638;-0.182;2023-08-07T07:12:11;100966.95;;;25.80;30.00
81990;BME280;71485;51.638;-0.182;2023-08-07T07:14:37;100969.77;;;25.81;29.97
81990;BME280;71485;51.638;-0.182;2023-08-07T07:17:02;100967.35;;;25.81;29.96
81990;BME280;71485;51.638;-0.182;2023-08-07T07:19:28;100967.66;;;25.81;29.95
81990;BME280;71485;51.638;-0.182;2023-08-07T07:21:53;100969.27;;;25.58;29.95
81990;BME280;71485;51.638;-0.182;2023-08-07T07:24:19;100969.17;;;25.78;29.99
81990;BME280;71485;51.638;-0.182;2023-08-07T07:26:45;100970.00;;;25.52;30.01
81990;BME280;71485;51.638;-0.182;2023-08-07T07:29:10;100967.01;;;25.76;30.00
81990;BME280;71485;51.638;-0.182;2023-08-07T07:31:35;100967.03;;;26.00;30.02
81990;BME280;71485;51.638;-0.182;2023-08-07T07:34:02;100964.77;;;25.49;30.11
81990;BME280;71485;51.638;-0.182;2023-08-07T07:36:26;100960.22;;;25.52;30.43
81990;BME280;71485;51.638;-0.182;2023-08-07T07:38:52;100958.06;;;25.81;30.25
81990;BME280;71485;51.638;-0.182;2023-08-07T07:41:18;100953.37;;;25.88;30.37
81990;BME280;71485;51.638;-0.182;2023-08-07T07:43:43;100944.13;;;25.92;30.29
81990;BME280;71485;51.638;-0.182;2023-08-07T07:46:08;100945.56;;;25.69;30.20
81990;BME280;71485;51.638;-0.182;2023-08-07T07:48:35;100944.58;;;25.94;30.31
81990;BME280;71485;51.638;-0.182;2023-08-07T07:51:00;100948.83;;;25.74;30.21
81990;BME280;71485;51.638;-0.182;2023-08-07T07:53:24;100946.73;;;25.76;30.16
81990;BME280;71485;51.638;-0.182;2023-08-07T07:55:50;100944.42;;;25.72;30.22
81990;BME280;71485;51.638;-0.182;2023-08-07T07:58:15;100942.99;;;25.74;30.22
81990;BME280;71485;51.638;-0.182;2023-08-07T08:00:42;100948.33;;;26.19;30.59
81990;BME280;71485;51.638;-0.182;2023-08-07T08:03:07;100947.19;;;26.01;30.32
81990;BME280;71485;51.638;-0.182;2023-08-07T08:05:32;100945.24;;;25.79;30.22
81990;BME280;71485;51.638;-0.182;2023-08-07T08:07:57;100946.69;;;26.05;30.23
81990;BME280;71485;51.638;-0.182;2023-08-07T08:10:23;100947.94;;;25.80;30.21
81990;BME280;71485;51.638;-0.182;2023-08-07T08:12:48;100952.68;;;26.31;30.28
81990;BME280;71485;51.638;-0.182;2023-08-07T08:15:15;100954.61;;;25.85;30.35
81990;BME280;71485;51.638;-0.182;2023-08-07T08:17:39;100953.34;;;25.81;30.21
81990;BME280;71485;51.638;-0.182;2023-08-07T08:20:06;100950.62;;;26.04;30.36
81990;BME280;71485;51.638;-0.182;2023-08-07T08:22:31;100951.94;;;26.07;30.74
81990;BME280;71485;51.638;-0.182;2023-08-07T08:24:57;100951.65;;;25.90;30.66
81990;BME280;71485;51.638;-0.182;2023-08-07T08:27:22;100952.91;;;26.12;30.62
81990;BME280;71485;51.638;-0.182;2023-08-07T08:29:47;100953.68;;;25.87;30.61
81990;BME280;71485;51.638;-0.182;2023-08-07T08:32:13;100951.24;;;25.88;30.58
81990;BME280;71485;51.638;-0.182;2023-08-07T08:34:42;100948.91;;;25.93;30.59
81990;BME280;71485;51.638;-0.182;2023-08-07T08:37:06;100955.73;;;25.97;30.56
81990;BME280;71485;51.638;-0.182;2023-08-07T08:39:30;100961.53;;;26.02;30.55
81990;BME280;71485;51.638;-0.182;2023-08-07T08:41:55;100964.60;;;26.02;30.43
81990;BME280;71485;51.638;-0.182;2023-08-07T08:44:22;100968.96;;;26.02;30.29
81990;BME280;71485;51.638;-0.182;2023-08-07T08:46:49;100968.72;;;26.03;30.25
81990;BME280;71485;51.638;-0.182;2023-08-07T08:49:15;100969.96;;;26.06;30.18
81990;BME280;71485;51.638;-0.182;2023-08-07T08:51:38;100969.07;;;26.06;30.15
81990;BME280;71485;51.638;-0.182;2023-08-07T08:54:06;100967.34;;;25.84;30.08
81990;BME280;71485;51.638;-0.182;2023-08-07T08:56:30;100976.94;;;26.09;30.04
81990;BME280;71485;51.638;-0.182;2023-08-07T08:58:54;100969.86;;;25.87;29.99
81990;BME280;71485;51.638;-0.182;2023-08-07T09:01:21;100967.62;;;26.13;29.97
81990;BME280;71485;51.638;-0.182;2023-08-07T09:03:45;100970.45;;;26.13;29.94
81990;BME280;71485;51.638;-0.182;2023-08-07T09:06:11;100971.80;;;25.91;29.93
81990;BME280;71485;51.638;-0.182;2023-08-07T09:08:38;100979.16;;;26.18;29.90
81990;BME280;71485;51.638;-0.182;2023-08-07T09:11:02;100971.06;;;26.19;29.90
81990;BME280;71485;51.638;-0.182;2023-08-07T09:13:28;100972.07;;;26.21;29.89
81990;BME280;71485;51.638;-0.182;2023-08-07T09:15:53;100969.53;;;26.23;29.90
81990;BME280;71485;51.638;-0.182;2023-08-07T09:18:19;100973.93;;;26.26;29.88
81990;BME280;71485;51.638;-0.182;2023-08-07T09:20:44;100971.31;;;26.28;29.82
81990;BME280;71485;51.638;-0.182;2023-08-07T09:23:10;100961.04;;;26.05;29.78
81990;BME280;71485;51.638;-0.182;2023-08-07T09:25:36;100959.25;;;26.32;29.75
81990;BME280;71485;51.638;-0.182;2023-08-07T09:28:02;100964.89;;;25.87;29.70
81990;BME280;71485;51.638;-0.182;2023-08-07T09:30:27;100966.69;;;26.14;29.68
81990;BME280;71485;51.638;-0.182;2023-08-07T09:32:52;100965.86;;;26.38;29.62
81990;BME280;71485;51.638;-0.182;2023-08-07T09:35:21;100965.73;;;26.39;29.64
81990;BME280;71485;51.638;-0.182;2023-08-07T09:37:44;100966.98;;;26.40;29.59
81990;BME280;71485;51.638;-0.182;2023-08-07T09:40:11;100969.53;;;26.44;29.53
81990;BME280;71485;51.638;-0.182;2023-08-07T09:42:35;100969.42;;;26.20;29.53
81990;BME280;71485;51.638;-0.182;2023-08-07T09:45:00;100970.03;;;26.21;29.48
81990;BME280;71485;51.638;-0.182;2023-08-07T09:47:25;100966.58;;;26.46;29.47
81990;BME280;71485;51.638;-0.182;2023-08-07T09:49:54;100969.50;;;26.48;29.43
81990;BME280;71485;51.638;-0.182;2023-08-07T09:52:17;100965.48;;;26.48;29.42
81990;BME280;71485;51.638;-0.182;2023-08-07T09:54:43;100971.31;;;26.51;29.39
81990;BME280;71485;51.638;-0.182;2023-08-07T09:57:07;100970.08;;;26.28;29.36
81990;BME280;71485;51.638;-0.182;2023-08-07T09:59:33;100973.11;;;26.31;29.40
81990;BME280;71485;51.638;-0.182;2023-08-07T10:02:00;100971.29;;;26.57;29.50
81990;BME280;71485;51.638;-0.182;2023-08-07T10:04:25;100968.62;;;26.58;29.49
81990;BME280;71485;51.638;-0.182;2023-08-07T10:06:50;100971.89;;;26.61;29.47
81990;BME280;71485;51.638;-0.182;2023-08-07T10:09:15;100975.90;;;26.37;29.48
81990;BME280;71485;51.638;-0.182;2023-08-07T10:11:41;100961.62;;;26.39;29.49
81990;BME280;71485;51.638;-0.182;2023-08-07T10:14:08;100958.15;;;26.64;29.42
81990;BME280;71485;51.638;-0.182;2023-08-07T10:16:32;100955.84;;;26.17;29.40
81990;BME280;71485;51.638;-0.182;2023-08-07T10:18:57;100953.66;;;26.44;29.36
81990;BME280;71485;51.638;-0.182;2023-08-07T10:21:24;100952.30;;;26.50;29.24
81990;BME280;71485;51.638;-0.182;2023-08-07T10:23:52;100948.61;;;26.27;29.21
81990;BME280;71485;51.638;-0.182;2023-08-07T10:26:15;100940.81;;;26.50;29.19
81990;BME280;71485;51.638;-0.182;2023-08-07T10:28:40;100946.99;;;26.75;29.19
81990;BME280;71485;51.638;-0.182;2023-08-07T10:31:06;100946.97;;;26.53;29.17
81990;BME280;71485;51.638;-0.182;2023-08-07T10:33:32;100939.87;;;26.55;29.14
81990;BME280;71485;51.638;-0.182;2023-08-07T10:35:57;100933.77;;;26.30;29.13
81990;BME280;71485;51.638;-0.182;2023-08-07T10:38:23;100937.19;;;26.80;29.10
81990;BME280;71485;51.638;-0.182;2023-08-07T10:40:58;100929.28;;;26.58;29.07
81990;BME280;71485;51.638;-0.182;2023-08-07T10:43:17;100935.46;;;26.61;28.97
81990;BME280;71485;51.638;-0.182;2023-08-07T10:45:38;100933.64;;;26.62;28.85
81990;BME280;71485;51.638;-0.182;2023-08-07T10:48:06;100932.00;;;26.64;28.91
81990;BME280;71485;51.638;-0.182;2023-08-07T10:50:31;100933.07;;;26.65;28.75
81990;BME280;71485;51.638;-0.182;2023-08-07T10:52:55;100923.89;;;26.42;28.69
81990;BME280;71485;51.638;-0.182;2023-08-07T10:55:21;100923.13;;;26.66;28.53
81990;BME280;71485;51.638;-0.182;2023-08-07T10:57:47;100928.28;;;26.67;28.50
81990;BME280;71485;51.638;-0.182;2023-08-07T11:00:13;100929.18;;;26.69;28.48
81990;BME280;71485;51.638;-0.182;2023-08-07T11:02:41;100923.31;;;26.47;28.42
81990;BME280;71485;51.638;-0.182;2023-08-07T11:05:04;100919.79;;;26.49;28.43
81990;BME280;71485;51.638;-0.182;2023-08-07T11:07:31;100919.71;;;26.77;28.36
81990;BME280;71485;51.638;-0.182;2023-08-07T11:09:55;100922.03;;;26.52;28.25
81990;BME280;71485;51.638;-0.182;2023-08-07T11:12:20;100922.30;;;26.52;28.38
81990;BME280;71485;51.638;-0.182;2023-08-07T11:14:46;100921.12;;;26.52;28.33
81990;BME280;71485;51.638;-0.182;2023-08-07T11:17:11;100919.84;;;26.52;28.30
81990;BME280;71485;51.638;-0.182;2023-08-07T11:19:36;100921.78;;;27.00;28.40
81990;BME280;71485;51.638;-0.182;2023-08-07T11:22:02;100921.23;;;26.78;28.45
81990;BME280;71485;51.638;-0.182;2023-08-07T11:24:27;100924.09;;;26.55;28.40
81990;BME280;71485;51.638;-0.182;2023-08-07T11:26:53;100917.95;;;26.56;28.44
81990;BME280;71485;51.638;-0.182;2023-08-07T11:29:18;100910.77;;;26.57;28.43
81990;BME280;71485;51.638;-0.182;2023-08-07T11:31:44;100910.29;;;26.83;28.41
81990;BME280;71485;51.638;-0.182;2023-08-07T11:34:10;100911.57;;;26.83;28.35
81990;BME280;71485;51.638;-0.182;2023-08-07T11:36:41;100903.15;;;26.61;28.40
81990;BME280;71485;51.638;-0.182;2023-08-07T11:39:02;100902.92;;;26.63;28.37
81990;BME280;71485;51.638;-0.182;2023-08-07T11:41:26;100898.37;;;26.88;28.39
81990;BME280;71485;51.638;-0.182;2023-08-07T11:43:52;100894.30;;;26.89;28.38
81990;BME280;71485;51.638;-0.182;2023-08-07T11:46:17;100890.54;;;26.65;28.34
81990;BME280;71485;51.638;-0.182;2023-08-07T11:48:43;100887.54;;;26.91;28.39
81990;BME280;71485;51.638;-0.182;2023-08-07T11:51:09;100892.60;;;26.68;28.40
81990;BME280;71485;51.638;-0.182;2023-08-07T11:53:35;100888.53;;;26.69;28.37
81990;BME280;71485;51.638;-0.182;2023-08-07T11:56:01;100888.93;;;26.73;28.35
81990;BME280;71485;51.638;-0.182;2023-08-07T11:58:26;100886.28;;;26.74;28.28
81990;BME280;71485;51.638;-0.182;2023-08-07T12:00:52;100888.00;;;26.77;28.29
81990;BME280;71485;51.638;-0.182;2023-08-07T12:03:25;100887.41;;;26.76;28.20
81990;BME280;71485;51.638;-0.182;2023-08-07T12:05:42;100884.87;;;26.77;28.24
81990;BME280;71485;51.638;-0.182;2023-08-07T12:08:07;100881.62;;;26.77;28.25
81990;BME280;71485;51.638;-0.182;2023-08-07T12:10:32;100879.24;;;27.02;28.24
81990;BME280;71485;51.638;-0.182;2023-08-07T12:12:59;100880.31;;;26.78;28.18
81990;BME280;71485;51.638;-0.182;2023-08-07T12:15:24;100878.35;;;26.78;28.16
81990;BME280;71485;51.638;-0.182;2023-08-07T12:17:49;100875.49;;;27.02;28.11
81990;BME280;71485;51.638;-0.182;2023-08-07T12:20:16;100877.16;;;26.78;28.12
81990;BME280;71485;51.638;-0.182;2023-08-07T12:22:40;100873.18;;;27.03;28.10
81990;BME280;71485;51.638;-0.182;2023-08-07T12:25:06;100874.01;;;26.79;28.08
81990;BME280;71485;51.638;-0.182;2023-08-07T12:27:32;100868.29;;;26.80;28.10
81990;BME280;71485;51.638;-0.182;2023-08-07T12:29:57;100865.15;;;26.82;28.09